sensor_id;sensor_type;location;lat;lon;timestamp;P1;durP1;ratioP1;P2;durP2;ratioP2
19942;SDS011;10133;50.956;17.276;2023-01-09T00:02:03;101.27;;;46.23;;
19942;SDS011;10133;50.956;17.276;2023-01-09T00:04:30;95.80;;;44.03;;
19942;SDS011;10133;50.956;17.276;2023-01-09T00:06:57;99.47;;;47.00;;
19942;SDS011;10133;50.956;17.276;2023-01-09T00:09:24;89.97;;;43.00;;
19942;SDS011;10133;50.956;17.276;2023-01-09T00:11:51;94.10;;;44.70;;
19942;SDS011;10133;50.956;17.276;2023-01-09T00:14:20;95.73;;;43.17;;
19942;SDS011;10133;50.956;17.276;2023-01-09T00:16:48;92.67;;;43.53;;
19942;SDS011;10133;50.956;17.276;2023-01-09T00:19:15;93.40;;;44.10;;
19942;SDS011;10133;50.956;17.276;2023-01-09T00:21:42;94.37;;;44.30;;
19942;SDS011;10133;50.956;17.276;2023-01-09T00:24:09;96.50;;;42.23;;
19942;SDS011;10133;50.956;17.276;2023-01-09T00:26:35;87.90;;;39.87;;
19942;SDS011;10133;50.956;17.276;2023-01-09T00:29:02;92.10;;;40.07;;
19942;SDS011;10133;50.956;17.276;2023-01-09T00:31:29;85.40;;;39.70;;
19942;SDS011;10133;50.956;17.276;2023-01-09T00:36:25;84.30;;;38.37;;
19942;SDS011;10133;50.956;17.276;2023-01-09T00:38:52;83.10;;;37.63;;
19942;SDS011;10133;50.956;17.276;2023-01-09T00:41:20;90.33;;;43.47;;
19942;SDS011;10133;50.956;17.276;2023-01-09T00:43:52;88.97;;;41.20;;
19942;SDS011;10133;50.956;17.276;2023-01-09T00:46:23;83.67;;;39.03;;
19942;SDS011;10133;50.956;17.276;2023-01-09T00:48:55;83.13;;;39.70;;
19942;SDS011;10133;50.956;17.276;2023-01-09T00:51:22;82.17;;;37.70;;
19942;SDS011;10133;50.956;17.276;2023-01-09T00:53:49;90.37;;;40.37;;
19942;SDS011;10133;50.956;17.276;2023-01-09T00:56:17;94.63;;;42.90;;
19942;SDS011;10133;50.956;17.276;2023-01-09T00:58:45;93.70;;;42.00;;
19942;SDS011;10133;50.956;17.276;2023-01-09T01:01:13;89.10;;;38.67;;
19942;SDS011;10133;50.956;17.276;2023-01-09T01:03:41;90.00;;;40.43;;
19942;SDS011;10133;50.956;17.276;2023-01-09T01:06:07;95.27;;;43.80;;
19942;SDS011;10133;50.956;17.276;2023-01-09T01:08:54;89.50;;;39.27;;
19942;SDS011;10133;50.956;17.276;2023-01-09T01:11:23;85.47;;;40.47;;
19942;SDS011;10133;50.956;17.276;2023-01-09T01:13:50;93.93;;;41.67;;
19942;SDS011;10133;50.956;17.276;2023-01-09T01:16:18;87.17;;;40.07;;
19942;SDS011;10133;50.956;17.276;2023-01-09T01:18:45;89.63;;;39.03;;
19942;SDS011;10133;50.956;17.276;2023-01-09T01:21:12;88.33;;;39.43;;
19942;SDS011;10133;50.956;17.276;2023-01-09T01:23:39;85.13;;;39.07;;
19942;SDS011;10133;50.956;17.276;2023-01-09T01:26:11;90.97;;;39.33;;
19942;SDS011;10133;50.956;17.276;2023-01-09T01:28:40;82.70;;;38.87;;
19942;SDS011;10133;50.956;17.276;2023-01-09T01:31:07;84.40;;;37.63;;
19942;SDS011;10133;50.956;17.276;2023-01-09T01:33:40;87.70;;;38.87;;
19942;SDS011;10133;50.956;17.276;2023-01-09T01:36:07;85.57;;;37.87;;
19942;SDS011;10133;50.956;17.276;2023-01-09T01:38:34;81.03;;;36.90;;
19942;SDS011;10133;50.956;17.276;2023-01-09T01:41:02;78.53;;;36.97;;
19942;SDS011;10133;50.956;17.276;2023-01-09T01:46:17;73.47;;;35.27;;
19942;SDS011;10133;50.956;17.276;2023-01-09T01:48:44;78.33;;;35.70;;
19942;SDS011;10133;50.956;17.276;2023-01-09T01:51:13;78.30;;;36.17;;
19942;SDS011;10133;50.956;17.276;2023-01-09T01:53:44;77.87;;;35.47;;
19942;SDS011;10133;50.956;17.276;2023-01-09T01:56:31;76.40;;;34.90;;
19942;SDS011;10133;50.956;17.276;2023-01-09T02:01:32;78.93;;;36.27;;
19942;SDS011;10133;50.956;17.276;2023-01-09T02:03:59;72.47;;;33.67;;
19942;SDS011;10133;50.956;17.276;2023-01-09T02:06:28;76.10;;;33.50;;
19942;SDS011;10133;50.956;17.276;2023-01-09T02:08:55;70.97;;;32.80;;
19942;SDS011;10133;50.956;17.276;2023-01-09T02:11:22;81.73;;;34.57;;
19942;SDS011;10133;50.956;17.276;2023-01-09T02:13:50;74.37;;;33.47;;
19942;SDS011;10133;50.956;17.276;2023-01-09T02:16:40;77.17;;;34.33;;
19942;SDS011;10133;50.956;17.276;2023-01-09T02:44:26;75.10;;;34.37;;
19942;SDS011;10133;50.956;17.276;2023-01-09T02:47:05;77.87;;;34.50;;
19942;SDS011;10133;50.956;17.276;2023-01-09T02:49:54;70.87;;;33.77;;
19942;SDS011;10133;50.956;17.276;2023-01-09T03:02:54;78.87;;;34.50;;
19942;SDS011;10133;50.956;17.276;2023-01-09T03:08:02;69.90;;;30.83;;
19942;SDS011;10133;50.956;17.276;2023-01-09T03:13:03;71.27;;;32.63;;
19942;SDS011;10133;50.956;17.276;2023-01-09T03:15:33;69.60;;;32.90;;
19942;SDS011;10133;50.956;17.276;2023-01-09T03:18:03;67.70;;;31.07;;
19942;SDS011;10133;50.956;17.276;2023-01-09T03:20:32;67.00;;;30.67;;
19942;SDS011;10133;50.956;17.276;2023-01-09T03:23:00;64.10;;;29.73;;
19942;SDS011;10133;50.956;17.276;2023-01-09T03:25:30;63.90;;;27.83;;
19942;SDS011;10133;50.956;17.276;2023-01-09T03:28:02;70.13;;;32.17;;
19942;SDS011;10133;50.956;17.276;2023-01-09T03:30:31;67.13;;;30.27;;
19942;SDS011;10133;50.956;17.276;2023-01-09T03:32:59;65.63;;;30.30;;
19942;SDS011;10133;50.956;17.276;2023-01-09T03:35:26;62.77;;;28.70;;
19942;SDS011;10133;50.956;17.276;2023-01-09T03:37:53;62.70;;;27.90;;
19942;SDS011;10133;50.956;17.276;2023-01-09T03:40:20;63.60;;;29.80;;
19942;SDS011;10133;50.956;17.276;2023-01-09T03:42:48;66.87;;;28.50;;
19942;SDS011;10133;50.956;17.276;2023-01-09T03:45:15;63.87;;;27.57;;
19942;SDS011;10133;50.956;17.276;2023-01-09T03:47:41;60.00;;;28.10;;
19942;SDS011;10133;50.956;17.276;2023-01-09T03:50:08;57.30;;;25.83;;
19942;SDS011;10133;50.956;17.276;2023-01-09T03:52:36;55.67;;;26.77;;
19942;SDS011;10133;50.956;17.276;2023-01-09T03:55:02;61.83;;;30.10;;
19942;SDS011;10133;50.956;17.276;2023-01-09T03:57:30;71.47;;;33.73;;
19942;SDS011;10133;50.956;17.276;2023-01-09T03:59:56;68.90;;;34.70;;
19942;SDS011;10133;50.956;17.276;2023-01-09T04:02:23;80.83;;;39.03;;
19942;SDS011;10133;50.956;17.276;2023-01-09T04:04:50;84.07;;;43.10;;
19942;SDS011;10133;50.956;17.276;2023-01-09T04:07:17;82.50;;;43.63;;
19942;SDS011;10133;50.956;17.276;2023-01-09T04:09:44;85.03;;;42.97;;
19942;SDS011;10133;50.956;17.276;2023-01-09T04:12:11;82.10;;;42.83;;
19942;SDS011;10133;50.956;17.276;2023-01-09T04:14:37;82.40;;;44.17;;
19942;SDS011;10133;50.956;17.276;2023-01-09T04:17:04;81.03;;;43.60;;
19942;SDS011;10133;50.956;17.276;2023-01-09T04:19:31;81.40;;;43.67;;
19942;SDS011;10133;50.956;17.276;2023-01-09T04:21:58;83.57;;;43.80;;
19942;SDS011;10133;50.956;17.276;2023-01-09T04:24:25;90.53;;;49.27;;
19942;SDS011;10133;50.956;17.276;2023-01-09T04:26:54;87.40;;;48.27;;
19942;SDS011;10133;50.956;17.276;2023-01-09T04:29:21;86.70;;;47.93;;
19942;SDS011;10133;50.956;17.276;2023-01-09T04:31:48;88.47;;;48.87;;
19942;SDS011;10133;50.956;17.276;2023-01-09T04:34:15;91.47;;;45.87;;
19942;SDS011;10133;50.956;17.276;2023-01-09T04:36:42;81.90;;;43.37;;
19942;SDS011;10133;50.956;17.276;2023-01-09T04:39:09;79.10;;;40.07;;
19942;SDS011;10133;50.956;17.276;2023-01-09T04:41:35;73.50;;;38.60;;
19942;SDS011;10133;50.956;17.276;2023-01-09T04:44:15;65.10;;;33.63;;
19942;SDS011;10133;50.956;17.276;2023-01-09T04:46:43;64.87;;;32.30;;
19942;SDS011;10133;50.956;17.276;2023-01-09T04:49:10;62.87;;;29.93;;
19942;SDS011;10133;50.956;17.276;2023-01-09T04:51:37;62.23;;;31.10;;
19942;SDS011;10133;50.956;17.276;2023-01-09T04:54:04;63.83;;;30.27;;
19942;SDS011;10133;50.956;17.276;2023-01-09T04:56:31;68.07;;;32.87;;
19942;SDS011;10133;50.956;17.276;2023-01-09T04:58:58;77.33;;;36.47;;
19942;SDS011;10133;50.956;17.276;2023-01-09T05:01:25;73.80;;;36.97;;
19942;SDS011;10133;50.956;17.276;2023-01-09T05:03:52;61.47;;;32.07;;
19942;SDS011;10133;50.956;17.276;2023-01-09T05:06:19;68.90;;;32.57;;
19942;SDS011;10133;50.956;17.276;2023-01-09T05:08:46;73.00;;;33.30;;
19942;SDS011;10133;50.956;17.276;2023-01-09T05:11:13;51.77;;;24.40;;
19942;SDS011;10133;50.956;17.276;2023-01-09T05:13:40;65.07;;;27.83;;
19942;SDS011;10133;50.956;17.276;2023-01-09T05:16:07;101.43;;;39.07;;
19942;SDS011;10133;50.956;17.276;2023-01-09T05:18:34;105.80;;;42.40;;
19942;SDS011;10133;50.956;17.276;2023-01-09T05:21:01;163.83;;;68.13;;
19942;SDS011;10133;50.956;17.276;2023-01-09T05:23:28;323.07;;;153.63;;
19942;SDS011;10133;50.956;17.276;2023-01-09T05:25:55;283.63;;;132.63;;
19942;SDS011;10133;50.956;17.276;2023-01-09T05:28:22;741.83;;;243.87;;
19942;SDS011;10133;50.956;17.276;2023-01-09T05:30:49;645.03;;;204.00;;
19942;SDS011;10133;50.956;17.276;2023-01-09T05:33:15;291.00;;;82.70;;
19942;SDS011;10133;50.956;17.276;2023-01-09T05:35:42;232.67;;;67.83;;
19942;SDS011;10133;50.956;17.276;2023-01-09T05:38:09;195.37;;;60.37;;
19942;SDS011;10133;50.956;17.276;2023-01-09T05:40:37;434.37;;;224.23;;
19942;SDS011;10133;50.956;17.276;2023-01-09T05:43:05;543.23;;;225.47;;
19942;SDS011;10133;50.956;17.276;2023-01-09T05:45:33;372.90;;;135.63;;
19942;SDS011;10133;50.956;17.276;2023-01-09T05:48:00;315.73;;;113.20;;
19942;SDS011;10133;50.956;17.276;2023-01-09T05:50:27;158.47;;;57.97;;
19942;SDS011;10133;50.956;17.276;2023-01-09T05:52:54;145.87;;;56.60;;
19942;SDS011;10133;50.956;17.276;2023-01-09T05:55:21;150.03;;;57.67;;
19942;SDS011;10133;50.956;17.276;2023-01-09T05:57:48;153.37;;;58.10;;
19942;SDS011;10133;50.956;17.276;2023-01-09T06:00:15;122.47;;;47.07;;
19942;SDS011;10133;50.956;17.276;2023-01-09T06:02:42;94.07;;;38.20;;
19942;SDS011;10133;50.956;17.276;2023-01-09T06:05:09;108.00;;;42.07;;
19942;SDS011;10133;50.956;17.276;2023-01-09T06:07:36;90.37;;;35.03;;
19942;SDS011;10133;50.956;17.276;2023-01-09T06:10:12;95.87;;;38.67;;
19942;SDS011;10133;50.956;17.276;2023-01-09T06:12:40;99.60;;;40.67;;
19942;SDS011;10133;50.956;17.276;2023-01-09T06:15:11;90.03;;;37.23;;
19942;SDS011;10133;50.956;17.276;2023-01-09T06:17:40;68.50;;;28.80;;
19942;SDS011;10133;50.956;17.276;2023-01-09T06:20:08;54.23;;;24.20;;
19942;SDS011;10133;50.956;17.276;2023-01-09T06:22:36;53.10;;;22.73;;
19942;SDS011;10133;50.956;17.276;2023-01-09T06:25:03;47.17;;;20.77;;
19942;SDS011;10133;50.956;17.276;2023-01-09T06:27:30;46.07;;;21.47;;
19942;SDS011;10133;50.956;17.276;2023-01-09T06:29:57;43.77;;;20.20;;
19942;SDS011;10133;50.956;17.276;2023-01-09T06:32:24;46.17;;;21.97;;
19942;SDS011;10133;50.956;17.276;2023-01-09T06:34:51;43.20;;;20.80;;
19942;SDS011;10133;50.956;17.276;2023-01-09T06:37:18;41.67;;;21.50;;
19942;SDS011;10133;50.956;17.276;2023-01-09T06:39:45;46.30;;;21.67;;
19942;SDS011;10133;50.956;17.276;2023-01-09T06:42:12;43.83;;;21.87;;
19942;SDS011;10133;50.956;17.276;2023-01-09T06:44:39;68.83;;;27.27;;
19942;SDS011;10133;50.956;17.276;2023-01-09T06:47:06;80.73;;;28.17;;
19942;SDS011;10133;50.956;17.276;2023-01-09T06:49:32;67.23;;;26.87;;
19942;SDS011;10133;50.956;17.276;2023-01-09T06:52:00;56.70;;;26.03;;
19942;SDS011;10133;50.956;17.276;2023-01-09T06:54:30;49.17;;;23.50;;
19942;SDS011;10133;50.956;17.276;2023-01-09T06:56:57;52.43;;;24.07;;
19942;SDS011;10133;50.956;17.276;2023-01-09T06:59:25;50.77;;;24.70;;
19942;SDS011;10133;50.956;17.276;2023-01-09T07:01:51;54.90;;;25.50;;
19942;SDS011;10133;50.956;17.276;2023-01-09T07:04:19;52.77;;;24.93;;
19942;SDS011;10133;50.956;17.276;2023-01-09T07:06:47;51.80;;;24.13;;
19942;SDS011;10133;50.956;17.276;2023-01-09T07:09:15;53.20;;;25.17;;
19942;SDS011;10133;50.956;17.276;2023-01-09T07:11:42;50.80;;;24.73;;
19942;SDS011;10133;50.956;17.276;2023-01-09T07:14:09;56.83;;;28.03;;
19942;SDS011;10133;50.956;17.276;2023-01-09T07:16:36;56.33;;;26.73;;
19942;SDS011;10133;50.956;17.276;2023-01-09T07:19:03;57.17;;;27.37;;
19942;SDS011;10133;50.956;17.276;2023-01-09T07:21:30;53.77;;;26.63;;
19942;SDS011;10133;50.956;17.276;2023-01-09T07:23:58;54.07;;;26.80;;
19942;SDS011;10133;50.956;17.276;2023-01-09T07:26:25;50.03;;;25.57;;
19942;SDS011;10133;50.956;17.276;2023-01-09T07:28:52;54.43;;;25.50;;
19942;SDS011;10133;50.956;17.276;2023-01-09T07:31:19;53.87;;;25.23;;
19942;SDS011;10133;50.956;17.276;2023-01-09T07:33:47;53.10;;;25.40;;
19942;SDS011;10133;50.956;17.276;2023-01-09T07:36:13;48.60;;;23.20;;
19942;SDS011;10133;50.956;17.276;2023-01-09T07:38:40;51.00;;;25.23;;
19942;SDS011;10133;50.956;17.276;2023-01-09T07:41:07;51.53;;;25.27;;
19942;SDS011;10133;50.956;17.276;2023-01-09T07:43:35;59.33;;;28.40;;
19942;SDS011;10133;50.956;17.276;2023-01-09T07:46:03;52.30;;;25.40;;
19942;SDS011;10133;50.956;17.276;2023-01-09T07:48:30;49.20;;;24.33;;
19942;SDS011;10133;50.956;17.276;2023-01-09T07:50:57;55.13;;;25.30;;
19942;SDS011;10133;50.956;17.276;2023-01-09T07:53:24;49.13;;;25.50;;
19942;SDS011;10133;50.956;17.276;2023-01-09T07:55:51;50.73;;;25.40;;
19942;SDS011;10133;50.956;17.276;2023-01-09T07:58:18;53.43;;;25.37;;
19942;SDS011;10133;50.956;17.276;2023-01-09T08:00:45;61.53;;;27.83;;
19942;SDS011;10133;50.956;17.276;2023-01-09T08:03:12;61.37;;;31.07;;
19942;SDS011;10133;50.956;17.276;2023-01-09T08:05:39;67.30;;;32.33;;
19942;SDS011;10133;50.956;17.276;2023-01-09T08:08:06;72.60;;;35.67;;
19942;SDS011;10133;50.956;17.276;2023-01-09T08:10:33;76.60;;;35.90;;
19942;SDS011;10133;50.956;17.276;2023-01-09T08:13:00;67.37;;;33.77;;
19942;SDS011;10133;50.956;17.276;2023-01-09T08:15:26;75.57;;;37.93;;
19942;SDS011;10133;50.956;17.276;2023-01-09T08:17:53;87.93;;;40.47;;
19942;SDS011;10133;50.956;17.276;2023-01-09T08:20:20;92.87;;;40.93;;
19942;SDS011;10133;50.956;17.276;2023-01-09T08:22:47;88.40;;;41.00;;
19942;SDS011;10133;50.956;17.276;2023-01-09T08:25:18;75.90;;;36.60;;
19942;SDS011;10133;50.956;17.276;2023-01-09T08:27:46;84.90;;;38.17;;
19942;SDS011;10133;50.956;17.276;2023-01-09T08:30:14;85.20;;;41.03;;
19942;SDS011;10133;50.956;17.276;2023-01-09T08:32:41;75.40;;;35.80;;
19942;SDS011;10133;50.956;17.276;2023-01-09T08:35:08;104.47;;;44.27;;
19942;SDS011;10133;50.956;17.276;2023-01-09T08:37:35;111.87;;;46.83;;
19942;SDS011;10133;50.956;17.276;2023-01-09T08:40:02;95.57;;;42.67;;
19942;SDS011;10133;50.956;17.276;2023-01-09T08:42:29;92.47;;;44.93;;
19942;SDS011;10133;50.956;17.276;2023-01-09T08:45:15;80.83;;;40.87;;
19942;SDS011;10133;50.956;17.276;2023-01-09T08:48:00;66.43;;;33.30;;
19942;SDS011;10133;50.956;17.276;2023-01-09T08:50:27;64.40;;;33.77;;
19942;SDS011;10133;50.956;17.276;2023-01-09T08:52:54;88.30;;;43.03;;
19942;SDS011;10133;50.956;17.276;2023-01-09T08:55:21;85.77;;;43.17;;
19942;SDS011;10133;50.956;17.276;2023-01-09T08:57:49;80.80;;;40.43;;
19942;SDS011;10133;50.956;17.276;2023-01-09T09:00:17;97.37;;;47.97;;
19942;SDS011;10133;50.956;17.276;2023-01-09T09:02:46;104.07;;;48.43;;
19942;SDS011;10133;50.956;17.276;2023-01-09T09:05:17;87.97;;;41.03;;
19942;SDS011;10133;50.956;17.276;2023-01-09T09:07:46;74.90;;;36.73;;
19942;SDS011;10133;50.956;17.276;2023-01-09T09:10:16;68.50;;;34.83;;
19942;SDS011;10133;50.956;17.276;2023-01-09T09:12:44;63.23;;;32.40;;
19942;SDS011;10133;50.956;17.276;2023-01-09T09:15:14;77.10;;;40.77;;
19942;SDS011;10133;50.956;17.276;2023-01-09T09:20:24;74.37;;;37.40;;
19942;SDS011;10133;50.956;17.276;2023-01-09T09:22:53;64.03;;;31.30;;
19942;SDS011;10133;50.956;17.276;2023-01-09T09:25:20;55.23;;;28.77;;
19942;SDS011;10133;50.956;17.276;2023-01-09T09:27:48;59.63;;;29.17;;
19942;SDS011;10133;50.956;17.276;2023-01-09T09:30:16;60.60;;;31.40;;
19942;SDS011;10133;50.956;17.276;2023-01-09T09:32:44;72.47;;;37.33;;
19942;SDS011;10133;50.956;17.276;2023-01-09T09:35:11;60.70;;;32.10;;
19942;SDS011;10133;50.956;17.276;2023-01-09T09:37:39;65.03;;;32.17;;
19942;SDS011;10133;50.956;17.276;2023-01-09T09:40:09;66.03;;;34.83;;
19942;SDS011;10133;50.956;17.276;2023-01-09T09:54:06;77.60;;;36.60;;
19942;SDS011;10133;50.956;17.276;2023-01-09T09:56:28;65.07;;;32.40;;
19942;SDS011;10133;50.956;17.276;2023-01-09T10:02:01;67.63;;;34.63;;
19942;SDS011;10133;50.956;17.276;2023-01-09T10:04:50;72.37;;;37.43;;
19942;SDS011;10133;50.956;17.276;2023-01-09T10:07:27;103.13;;;47.10;;
19942;SDS011;10133;50.956;17.276;2023-01-09T10:10:00;75.40;;;38.43;;
19942;SDS011;10133;50.956;17.276;2023-01-09T10:15:35;86.73;;;45.60;;
19942;SDS011;10133;50.956;17.276;2023-01-09T10:29:05;52.57;;;28.73;;
19942;SDS011;10133;50.956;17.276;2023-01-09T10:42:31;43.03;;;22.33;;
19942;SDS011;10133;50.956;17.276;2023-01-09T10:45:29;41.40;;;22.17;;
19942;SDS011;10133;50.956;17.276;2023-01-09T10:48:21;41.17;;;22.37;;
19942;SDS011;10133;50.956;17.276;2023-01-09T10:50:54;34.37;;;18.60;;
19942;SDS011;10133;50.956;17.276;2023-01-09T10:53:24;32.90;;;17.90;;
19942;SDS011;10133;50.956;17.276;2023-01-09T10:55:55;28.23;;;15.00;;
19942;SDS011;10133;50.956;17.276;2023-01-09T10:58:27;26.43;;;15.33;;
19942;SDS011;10133;50.956;17.276;2023-01-09T11:00:54;26.57;;;14.83;;
19942;SDS011;10133;50.956;17.276;2023-01-09T11:03:25;23.33;;;13.73;;
19942;SDS011;10133;50.956;17.276;2023-01-09T11:05:54;23.60;;;13.70;;
19942;SDS011;10133;50.956;17.276;2023-01-09T11:08:44;22.87;;;12.73;;
19942;SDS011;10133;50.956;17.276;2023-01-09T11:11:11;22.70;;;12.73;;
19942;SDS011;10133;50.956;17.276;2023-01-09T11:14:06;21.77;;;12.93;;
19942;SDS011;10133;50.956;17.276;2023-01-09T11:16:50;23.00;;;13.03;;
19942;SDS011;10133;50.956;17.276;2023-01-09T11:19:20;23.77;;;12.87;;
19942;SDS011;10133;50.956;17.276;2023-01-09T11:21:48;19.40;;;11.67;;
19942;SDS011;10133;50.956;17.276;2023-01-09T11:26:46;19.43;;;11.73;;
19942;SDS011;10133;50.956;17.276;2023-01-09T11:29:15;20.20;;;11.90;;
19942;SDS011;10133;50.956;17.276;2023-01-09T11:34:17;20.03;;;12.07;;
19942;SDS011;10133;50.956;17.276;2023-01-09T11:36:46;20.60;;;12.57;;
19942;SDS011;10133;50.956;17.276;2023-01-09T11:39:26;26.97;;;15.60;;
19942;SDS011;10133;50.956;17.276;2023-01-09T11:41:56;23.10;;;13.67;;
19942;SDS011;10133;50.956;17.276;2023-01-09T11:44:26;26.77;;;16.63;;
19942;SDS011;10133;50.956;17.276;2023-01-09T11:46:55;29.80;;;17.30;;
19942;SDS011;10133;50.956;17.276;2023-01-09T11:49:23;29.43;;;16.87;;
19942;SDS011;10133;50.956;17.276;2023-01-09T11:54:55;25.43;;;14.67;;
19942;SDS011;10133;50.956;17.276;2023-01-09T11:57:26;26.63;;;15.97;;
19942;SDS011;10133;50.956;17.276;2023-01-09T11:59:54;24.77;;;15.10;;
19942;SDS011;10133;50.956;17.276;2023-01-09T12:21:32;26.33;;;14.03;;
19942;SDS011;10133;50.956;17.276;2023-01-09T12:24:21;24.13;;;14.20;;
19942;SDS011;10133;50.956;17.276;2023-01-09T12:27:05;24.87;;;13.10;;
19942;SDS011;10133;50.956;17.276;2023-01-09T12:34:57;20.27;;;12.03;;
19942;SDS011;10133;50.956;17.276;2023-01-09T12:54:03;13.27;;;7.50;;
19942;SDS011;10133;50.956;17.276;2023-01-09T12:56:49;13.53;;;6.70;;
19942;SDS011;10133;50.956;17.276;2023-01-09T13:02:09;13.07;;;7.27;;
19942;SDS011;10133;50.956;17.276;2023-01-09T13:04:51;10.37;;;7.27;;
19942;SDS011;10133;50.956;17.276;2023-01-09T13:07:28;11.00;;;6.93;;
19942;SDS011;10133;50.956;17.276;2023-01-09T13:12:50;10.73;;;6.77;;
19942;SDS011;10133;50.956;17.276;2023-01-09T13:17:53;10.10;;;6.27;;
19942;SDS011;10133;50.956;17.276;2023-01-09T13:20:31;9.87;;;6.60;;
19942;SDS011;10133;50.956;17.276;2023-01-09T13:23:21;13.67;;;7.30;;
19942;SDS011;10133;50.956;17.276;2023-01-09T13:25:54;14.07;;;7.33;;
19942;SDS011;10133;50.956;17.276;2023-01-09T13:28:33;12.63;;;7.50;;
19942;SDS011;10133;50.956;17.276;2023-01-09T13:33:41;15.60;;;8.60;;
19942;SDS011;10133;50.956;17.276;2023-01-09T13:36:23;13.33;;;7.50;;
19942;SDS011;10133;50.956;17.276;2023-01-09T13:38:56;15.10;;;8.47;;
19942;SDS011;10133;50.956;17.276;2023-01-09T13:41:25;12.93;;;8.07;;
19942;SDS011;10133;50.956;17.276;2023-01-09T13:46:54;15.33;;;8.13;;
19942;SDS011;10133;50.956;17.276;2023-01-09T13:49:31;14.40;;;9.10;;
19942;SDS011;10133;50.956;17.276;2023-01-09T13:52:05;16.53;;;9.30;;
19942;SDS011;10133;50.956;17.276;2023-01-09T13:59:57;12.80;;;9.03;;
19942;SDS011;10133;50.956;17.276;2023-01-09T14:05:15;16.07;;;9.47;;
19942;SDS011;10133;50.956;17.276;2023-01-09T14:07:59;16.50;;;10.63;;
19942;SDS011;10133;50.956;17.276;2023-01-09T14:10:28;17.10;;;11.13;;
19942;SDS011;10133;50.956;17.276;2023-01-09T14:13:00;16.20;;;10.47;;
19942;SDS011;10133;50.956;17.276;2023-01-09T14:15:40;18.97;;;11.10;;
19942;SDS011;10133;50.956;17.276;2023-01-09T14:21:09;20.60;;;12.17;;
19942;SDS011;10133;50.956;17.276;2023-01-09T14:26:44;18.60;;;11.63;;
19942;SDS011;10133;50.956;17.276;2023-01-09T14:34:52;25.40;;;14.00;;
19942;SDS011;10133;50.956;17.276;2023-01-09T14:37:22;25.87;;;13.80;;
19942;SDS011;10133;50.956;17.276;2023-01-09T14:39:52;20.83;;;13.37;;
19942;SDS011;10133;50.956;17.276;2023-01-09T14:42:22;19.10;;;11.97;;
19942;SDS011;10133;50.956;17.276;2023-01-09T14:45:35;20.63;;;13.00;;
19942;SDS011;10133;50.956;17.276;2023-01-09T15:00:47;24.97;;;14.90;;
19942;SDS011;10133;50.956;17.276;2023-01-09T15:03:18;25.63;;;14.33;;
19942;SDS011;10133;50.956;17.276;2023-01-09T15:05:47;24.30;;;14.57;;
19942;SDS011;10133;50.956;17.276;2023-01-09T15:08:21;26.97;;;15.33;;
19942;SDS011;10133;50.956;17.276;2023-01-09T15:10:51;23.50;;;13.93;;
19942;SDS011;10133;50.956;17.276;2023-01-09T15:13:26;21.83;;;13.23;;
19942;SDS011;10133;50.956;17.276;2023-01-09T15:15:53;20.47;;;12.17;;
19942;SDS011;10133;50.956;17.276;2023-01-09T15:18:27;23.00;;;13.63;;
19942;SDS011;10133;50.956;17.276;2023-01-09T15:20:58;19.73;;;12.43;;
19942;SDS011;10133;50.956;17.276;2023-01-09T15:23:27;21.47;;;13.53;;
19942;SDS011;10133;50.956;17.276;2023-01-09T15:28:52;22.60;;;13.37;;
19942;SDS011;10133;50.956;17.276;2023-01-09T15:31:26;21.10;;;12.87;;
19942;SDS011;10133;50.956;17.276;2023-01-09T15:33:54;21.23;;;12.83;;
19942;SDS011;10133;50.956;17.276;2023-01-09T15:36:26;22.83;;;13.50;;
19942;SDS011;10133;50.956;17.276;2023-01-09T15:38:56;20.33;;;12.73;;
19942;SDS011;10133;50.956;17.276;2023-01-09T15:41:25;20.37;;;12.20;;
19942;SDS011;10133;50.956;17.276;2023-01-09T15:46:46;22.83;;;12.03;;
19942;SDS011;10133;50.956;17.276;2023-01-09T15:49:17;21.83;;;12.10;;
19942;SDS011;10133;50.956;17.276;2023-01-09T15:51:45;23.87;;;12.27;;
19942;SDS011;10133;50.956;17.276;2023-01-09T15:54:14;21.40;;;11.60;;
19942;SDS011;10133;50.956;17.276;2023-01-09T15:56:42;22.20;;;11.43;;
19942;SDS011;10133;50.956;17.276;2023-01-09T15:59:45;20.57;;;12.00;;
19942;SDS011;10133;50.956;17.276;2023-01-09T16:02:04;24.27;;;11.13;;
19942;SDS011;10133;50.956;17.276;2023-01-09T16:04:56;16.60;;;10.43;;
19942;SDS011;10133;50.956;17.276;2023-01-09T16:07:23;14.23;;;9.20;;
19942;SDS011;10133;50.956;17.276;2023-01-09T16:09:50;15.70;;;9.77;;
19942;SDS011;10133;50.956;17.276;2023-01-09T16:12:22;18.13;;;10.37;;
19942;SDS011;10133;50.956;17.276;2023-01-09T16:14:56;16.23;;;9.97;;
19942;SDS011;10133;50.956;17.276;2023-01-09T16:17:25;15.10;;;8.70;;
19942;SDS011;10133;50.956;17.276;2023-01-09T16:19:58;14.97;;;9.40;;
19942;SDS011;10133;50.956;17.276;2023-01-09T16:22:54;15.10;;;9.57;;
19942;SDS011;10133;50.956;17.276;2023-01-09T16:30:57;16.23;;;10.13;;
19942;SDS011;10133;50.956;17.276;2023-01-09T16:33:25;18.73;;;11.07;;
19942;SDS011;10133;50.956;17.276;2023-01-09T16:35:53;30.50;;;16.80;;
19942;SDS011;10133;50.956;17.276;2023-01-09T16:38:20;39.43;;;19.37;;
19942;SDS011;10133;50.956;17.276;2023-01-09T16:43:44;88.30;;;44.30;;
19942;SDS011;10133;50.956;17.276;2023-01-09T16:46:11;97.57;;;46.37;;
19942;SDS011;10133;50.956;17.276;2023-01-09T16:48:39;112.57;;;42.70;;
19942;SDS011;10133;50.956;17.276;2023-01-09T16:51:11;140.20;;;50.40;;
19942;SDS011;10133;50.956;17.276;2023-01-09T16:53:41;144.23;;;52.20;;
19942;SDS011;10133;50.956;17.276;2023-01-09T16:56:25;134.87;;;52.47;;
19942;SDS011;10133;50.956;17.276;2023-01-09T16:58:54;142.33;;;50.80;;
19942;SDS011;10133;50.956;17.276;2023-01-09T17:01:22;112.30;;;41.47;;
19942;SDS011;10133;50.956;17.276;2023-01-09T17:03:49;94.63;;;37.77;;
19942;SDS011;10133;50.956;17.276;2023-01-09T17:06:22;52.33;;;23.47;;
19942;SDS011;10133;50.956;17.276;2023-01-09T17:08:54;47.63;;;21.20;;
19942;SDS011;10133;50.956;17.276;2023-01-09T17:11:22;32.33;;;17.27;;
19942;SDS011;10133;50.956;17.276;2023-01-09T17:13:57;71.90;;;33.90;;
19942;SDS011;10133;50.956;17.276;2023-01-09T17:16:25;56.53;;;26.57;;
19942;SDS011;10133;50.956;17.276;2023-01-09T17:18:53;53.00;;;27.70;;
19942;SDS011;10133;50.956;17.276;2023-01-09T17:21:21;79.47;;;33.67;;
19942;SDS011;10133;50.956;17.276;2023-01-09T17:23:49;102.67;;;47.17;;
19942;SDS011;10133;50.956;17.276;2023-01-09T17:26:35;90.93;;;45.13;;
19942;SDS011;10133;50.956;17.276;2023-01-09T17:29:22;154.33;;;85.43;;
19942;SDS011;10133;50.956;17.276;2023-01-09T17:31:49;96.60;;;51.83;;
19942;SDS011;10133;50.956;17.276;2023-01-09T17:34:16;98.07;;;53.00;;
19942;SDS011;10133;50.956;17.276;2023-01-09T17:36:43;95.40;;;51.93;;
19942;SDS011;10133;50.956;17.276;2023-01-09T17:39:14;86.63;;;44.53;;
19942;SDS011;10133;50.956;17.276;2023-01-09T17:41:42;81.67;;;44.07;;
19942;SDS011;10133;50.956;17.276;2023-01-09T17:44:10;101.43;;;52.63;;
19942;SDS011;10133;50.956;17.276;2023-01-09T17:46:38;91.47;;;48.37;;